sensor_id;sensor_type;location;lat;lon;timestamp;P1;durP1;ratioP1;P2;durP2;ratioP2
79687;SDS011;69155;49.464;2.108;2023-04-24T00:03:56;5.75;;;3.72;;
79687;SDS011;69155;49.464;2.108;2023-04-24T00:06:31;6.70;;;4.00;;
79687;SDS011;69155;49.464;2.108;2023-04-24T00:09:01;8.38;;;3.58;;
79687;SDS011;69155;49.464;2.108;2023-04-24T00:11:30;5.32;;;4.18;;
79687;SDS011;69155;49.464;2.108;2023-04-24T00:16:46;7.63;;;3.97;;
79687;SDS011;69155;49.464;2.108;2023-04-24T00:19:16;8.70;;;4.57;;
79687;SDS011;69155;49.464;2.108;2023-04-24T00:21:48;10.80;;;4.68;;
79687;SDS011;69155;49.464;2.108;2023-04-24T00:24:37;8.18;;;3.97;;
79687;SDS011;69155;49.464;2.108;2023-04-24T00:27:07;5.88;;;3.78;;
79687;SDS011;69155;49.464;2.108;2023-04-24T00:29:37;10.05;;;4.13;;
79687;SDS011;69155;49.464;2.108;2023-04-24T00:32:07;8.27;;;4.25;;
79687;SDS011;69155;49.464;2.108;2023-04-24T00:34:43;4.47;;;3.30;;
79687;SDS011;69155;49.464;2.108;2023-04-24T00:37:11;8.20;;;4.43;;
79687;SDS011;69155;49.464;2.108;2023-04-24T00:39:39;6.22;;;3.80;;
79687;SDS011;69155;49.464;2.108;2023-04-24T00:42:13;9.52;;;4.50;;
79687;SDS011;69155;49.464;2.108;2023-04-24T00:47:36;7.95;;;4.30;;
79687;SDS011;69155;49.464;2.108;2023-04-24T00:50:11;11.55;;;5.10;;
79687;SDS011;69155;49.464;2.108;2023-04-24T00:52:38;12.30;;;4.85;;
79687;SDS011;69155;49.464;2.108;2023-04-24T00:57:58;6.75;;;4.78;;
79687;SDS011;69155;49.464;2.108;2023-04-24T01:03:30;12.75;;;4.97;;
79687;SDS011;69155;49.464;2.108;2023-04-24T01:05:59;9.95;;;5.50;;
79687;SDS011;69155;49.464;2.108;2023-04-24T01:11:30;12.30;;;5.40;;
79687;SDS011;69155;49.464;2.108;2023-04-24T01:14:10;9.40;;;5.57;;
79687;SDS011;69155;49.464;2.108;2023-04-24T01:16:42;13.70;;;6.00;;
79687;SDS011;69155;49.464;2.108;2023-04-24T01:19:11;12.73;;;5.82;;
79687;SDS011;69155;49.464;2.108;2023-04-24T01:21:40;11.60;;;5.72;;
79687;SDS011;69155;49.464;2.108;2023-04-24T01:24:24;8.85;;;5.45;;
79687;SDS011;69155;49.464;2.108;2023-04-24T01:26:52;8.48;;;6.18;;
79687;SDS011;69155;49.464;2.108;2023-04-24T01:29:20;8.77;;;5.87;;
79687;SDS011;69155;49.464;2.108;2023-04-24T01:31:51;10.38;;;6.07;;
79687;SDS011;69155;49.464;2.108;2023-04-24T01:34:17;10.85;;;5.95;;
79687;SDS011;69155;49.464;2.108;2023-04-24T01:36:45;12.00;;;5.55;;
79687;SDS011;69155;49.464;2.108;2023-04-24T01:39:21;14.88;;;6.32;;
79687;SDS011;69155;49.464;2.108;2023-04-24T01:41:50;9.90;;;5.65;;
79687;SDS011;69155;49.464;2.108;2023-04-24T01:47:09;9.00;;;5.78;;
79687;SDS011;69155;49.464;2.108;2023-04-24T01:49:34;12.18;;;6.45;;
79687;SDS011;69155;49.464;2.108;2023-04-24T01:52:02;14.05;;;6.55;;
79687;SDS011;69155;49.464;2.108;2023-04-24T01:54:27;12.57;;;6.43;;
79687;SDS011;69155;49.464;2.108;2023-04-24T01:56:57;10.98;;;6.80;;
79687;SDS011;69155;49.464;2.108;2023-04-24T02:02:13;14.05;;;6.38;;
79687;SDS011;69155;49.464;2.108;2023-04-24T02:04:53;13.13;;;7.05;;
79687;SDS011;69155;49.464;2.108;2023-04-24T02:07:18;9.27;;;6.18;;
79687;SDS011;69155;49.464;2.108;2023-04-24T02:09:44;13.07;;;6.10;;
79687;SDS011;69155;49.464;2.108;2023-04-24T02:12:12;12.50;;;6.50;;
79687;SDS011;69155;49.464;2.108;2023-04-24T02:14:40;13.67;;;6.93;;
79687;SDS011;69155;49.464;2.108;2023-04-24T02:17:11;11.45;;;6.78;;
79687;SDS011;69155;49.464;2.108;2023-04-24T02:19:38;10.90;;;6.63;;
79687;SDS011;69155;49.464;2.108;2023-04-24T02:22:04;18.95;;;7.55;;
79687;SDS011;69155;49.464;2.108;2023-04-24T02:24:36;14.25;;;7.60;;
79687;SDS011;69155;49.464;2.108;2023-04-24T02:27:02;15.50;;;7.10;;
79687;SDS011;69155;49.464;2.108;2023-04-24T02:29:30;9.50;;;6.43;;
79687;SDS011;69155;49.464;2.108;2023-04-24T02:31:56;11.27;;;6.97;;
79687;SDS011;69155;49.464;2.108;2023-04-24T02:34:31;13.82;;;8.05;;
79687;SDS011;69155;49.464;2.108;2023-04-24T02:36:57;12.30;;;7.63;;
79687;SDS011;69155;49.464;2.108;2023-04-24T02:39:27;11.13;;;8.00;;
79687;SDS011;69155;49.464;2.108;2023-04-24T02:41:57;11.50;;;8.18;;
79687;SDS011;69155;49.464;2.108;2023-04-24T02:44:26;15.25;;;7.70;;
79687;SDS011;69155;49.464;2.108;2023-04-24T02:46:52;9.55;;;7.30;;
79687;SDS011;69155;49.464;2.108;2023-04-24T02:49:17;10.23;;;6.67;;
79687;SDS011;69155;49.464;2.108;2023-04-24T02:54:32;11.95;;;7.57;;
79687;SDS011;69155;49.464;2.108;2023-04-24T02:57:00;12.63;;;7.37;;
79687;SDS011;69155;49.464;2.108;2023-04-24T02:59:26;13.75;;;8.40;;
79687;SDS011;69155;49.464;2.108;2023-04-24T03:02:01;10.32;;;7.25;;
79687;SDS011;69155;49.464;2.108;2023-04-24T03:04:29;10.20;;;7.28;;
79687;SDS011;69155;49.464;2.108;2023-04-24T03:07:02;17.23;;;8.30;;
79687;SDS011;69155;49.464;2.108;2023-04-24T03:09:27;12.57;;;8.18;;
79687;SDS011;69155;49.464;2.108;2023-04-24T03:12:01;10.63;;;7.28;;
79687;SDS011;69155;49.464;2.108;2023-04-24T03:14:26;14.23;;;7.50;;
79687;SDS011;69155;49.464;2.108;2023-04-24T03:16:59;10.07;;;7.30;;
79687;SDS011;69155;49.464;2.108;2023-04-24T03:19:32;14.20;;;7.47;;
79687;SDS011;69155;49.464;2.108;2023-04-24T03:21:59;13.57;;;7.13;;
79687;SDS011;69155;49.464;2.108;2023-04-24T03:24:29;16.77;;;6.97;;
79687;SDS011;69155;49.464;2.108;2023-04-24T03:27:00;10.52;;;6.57;;
79687;SDS011;69155;49.464;2.108;2023-04-24T03:29:25;11.38;;;6.22;;
79687;SDS011;69155;49.464;2.108;2023-04-24T03:31:51;13.98;;;6.18;;
79687;SDS011;69155;49.464;2.108;2023-04-24T03:34:18;14.93;;;6.97;;
79687;SDS011;69155;49.464;2.108;2023-04-24T03:36:47;15.10;;;7.13;;
79687;SDS011;69155;49.464;2.108;2023-04-24T03:39:22;11.82;;;6.45;;
79687;SDS011;69155;49.464;2.108;2023-04-24T03:41:50;10.60;;;6.25;;
79687;SDS011;69155;49.464;2.108;2023-04-24T03:44:18;12.40;;;7.43;;
79687;SDS011;69155;49.464;2.108;2023-04-24T03:49:11;17.00;;;6.87;;
79687;SDS011;69155;49.464;2.108;2023-04-24T03:51:39;13.17;;;6.40;;
79687;SDS011;69155;49.464;2.108;2023-04-24T03:54:07;16.42;;;7.28;;
79687;SDS011;69155;49.464;2.108;2023-04-24T03:56:32;14.57;;;7.10;;
79687;SDS011;69155;49.464;2.108;2023-04-24T03:58:57;14.50;;;6.83;;
79687;SDS011;69155;49.464;2.108;2023-04-24T04:07:27;9.80;;;5.75;;
79687;SDS011;69155;49.464;2.108;2023-04-24T04:10:02;16.48;;;6.95;;
79687;SDS011;69155;49.464;2.108;2023-04-24T04:12:49;19.15;;;7.38;;
79687;SDS011;69155;49.464;2.108;2023-04-24T04:15:19;14.60;;;7.82;;
79687;SDS011;69155;49.464;2.108;2023-04-24T04:17:53;12.15;;;7.38;;
79687;SDS011;69155;49.464;2.108;2023-04-24T04:20:21;11.65;;;7.03;;
79687;SDS011;69155;49.464;2.108;2023-04-24T04:22:52;15.32;;;6.80;;
79687;SDS011;69155;49.464;2.108;2023-04-24T04:30:39;15.88;;;7.32;;
79687;SDS011;69155;49.464;2.108;2023-04-24T04:33:12;11.88;;;7.47;;
79687;SDS011;69155;49.464;2.108;2023-04-24T04:35:40;12.15;;;7.50;;
79687;SDS011;69155;49.464;2.108;2023-04-24T04:38:12;17.40;;;7.60;;
79687;SDS011;69155;49.464;2.108;2023-04-24T04:40:40;15.90;;;7.22;;
79687;SDS011;69155;49.464;2.108;2023-04-24T04:43:12;13.57;;;8.13;;
79687;SDS011;69155;49.464;2.108;2023-04-24T04:45:43;15.63;;;7.57;;
79687;SDS011;69155;49.464;2.108;2023-04-24T04:48:19;13.05;;;7.43;;
79687;SDS011;69155;49.464;2.108;2023-04-24T04:50:47;9.90;;;7.40;;
79687;SDS011;69155;49.464;2.108;2023-04-24T04:53:12;11.35;;;7.15;;
79687;SDS011;69155;49.464;2.108;2023-04-24T04:55:40;12.50;;;8.03;;
79687;SDS011;69155;49.464;2.108;2023-04-24T04:58:05;13.32;;;8.10;;
79687;SDS011;69155;49.464;2.108;2023-04-24T05:00:41;24.60;;;7.90;;
79687;SDS011;69155;49.464;2.108;2023-04-24T05:03:09;12.07;;;6.90;;
79687;SDS011;69155;49.464;2.108;2023-04-24T05:05:41;12.90;;;8.00;;
79687;SDS011;69155;49.464;2.108;2023-04-24T05:08:12;20.73;;;8.75;;
79687;SDS011;69155;49.464;2.108;2023-04-24T05:10:40;18.38;;;7.95;;
79687;SDS011;69155;49.464;2.108;2023-04-24T05:13:12;14.23;;;7.95;;
79687;SDS011;69155;49.464;2.108;2023-04-24T05:15:43;12.23;;;7.25;;
79687;SDS011;69155;49.464;2.108;2023-04-24T05:20:42;21.88;;;7.63;;
79687;SDS011;69155;49.464;2.108;2023-04-24T05:23:11;16.17;;;7.97;;
79687;SDS011;69155;49.464;2.108;2023-04-24T05:25:43;13.38;;;8.57;;
79687;SDS011;69155;49.464;2.108;2023-04-24T05:28:11;18.20;;;8.45;;
79687;SDS011;69155;49.464;2.108;2023-04-24T05:33:42;14.65;;;7.70;;
79687;SDS011;69155;49.464;2.108;2023-04-24T05:36:11;18.37;;;8.40;;
79687;SDS011;69155;49.464;2.108;2023-04-24T05:38:42;14.45;;;9.00;;
79687;SDS011;69155;49.464;2.108;2023-04-24T05:41:22;15.38;;;9.02;;
79687;SDS011;69155;49.464;2.108;2023-04-24T05:44:05;18.83;;;9.30;;
79687;SDS011;69155;49.464;2.108;2023-04-24T05:46:50;17.60;;;8.65;;
79687;SDS011;69155;49.464;2.108;2023-04-24T05:49:22;13.50;;;8.37;;
79687;SDS011;69155;49.464;2.108;2023-04-24T05:51:50;15.38;;;8.13;;
79687;SDS011;69155;49.464;2.108;2023-04-24T05:54:22;15.13;;;8.98;;
79687;SDS011;69155;49.464;2.108;2023-04-24T05:56:48;15.38;;;8.93;;
79687;SDS011;69155;49.464;2.108;2023-04-24T06:02:10;16.90;;;8.85;;
79687;SDS011;69155;49.464;2.108;2023-04-24T06:04:57;14.55;;;9.45;;
79687;SDS011;69155;49.464;2.108;2023-04-24T06:10:23;16.88;;;9.15;;
79687;SDS011;69155;49.464;2.108;2023-04-24T06:12:51;16.77;;;9.00;;
79687;SDS011;69155;49.464;2.108;2023-04-24T06:15:23;17.98;;;9.80;;
79687;SDS011;69155;49.464;2.108;2023-04-24T06:17:51;18.48;;;10.45;;
79687;SDS011;69155;49.464;2.108;2023-04-24T06:20:19;18.85;;;9.77;;
79687;SDS011;69155;49.464;2.108;2023-04-24T06:22:50;20.13;;;10.00;;
79687;SDS011;69155;49.464;2.108;2023-04-24T06:25:25;16.10;;;9.50;;
79687;SDS011;69155;49.464;2.108;2023-04-24T06:27:51;16.73;;;10.52;;
79687;SDS011;69155;49.464;2.108;2023-04-24T06:30:24;16.60;;;9.40;;
79687;SDS011;69155;49.464;2.108;2023-04-24T06:32:52;26.20;;;10.55;;
79687;SDS011;69155;49.464;2.108;2023-04-24T06:35:17;12.57;;;9.60;;
79687;SDS011;69155;49.464;2.108;2023-04-24T06:38:02;15.85;;;10.18;;
79687;SDS011;69155;49.464;2.108;2023-04-24T06:40:30;14.13;;;9.10;;
79687;SDS011;69155;49.464;2.108;2023-04-24T06:42:56;18.15;;;9.75;;
79687;SDS011;69155;49.464;2.108;2023-04-24T06:45:22;17.80;;;10.18;;
79687;SDS011;69155;49.464;2.108;2023-04-24T06:47:48;16.97;;;10.37;;
79687;SDS011;69155;49.464;2.108;2023-04-24T06:50:16;19.77;;;11.05;;
79687;SDS011;69155;49.464;2.108;2023-04-24T06:52:43;21.67;;;11.35;;
79687;SDS011;69155;49.464;2.108;2023-04-24T06:55:11;18.70;;;11.73;;
79687;SDS011;69155;49.464;2.108;2023-04-24T06:57:37;22.25;;;11.93;;
79687;SDS011;69155;49.464;2.108;2023-04-24T07:00:03;17.83;;;10.83;;
79687;SDS011;69155;49.464;2.108;2023-04-24T07:02:31;18.00;;;11.13;;
79687;SDS011;69155;49.464;2.108;2023-04-24T07:05:03;19.88;;;10.75;;
79687;SDS011;69155;49.464;2.108;2023-04-24T07:07:32;23.77;;;11.10;;
79687;SDS011;69155;49.464;2.108;2023-04-24T07:10:00;15.48;;;9.90;;
79687;SDS011;69155;49.464;2.108;2023-04-24T07:12:31;18.77;;;10.18;;
79687;SDS011;69155;49.464;2.108;2023-04-24T07:14:57;19.08;;;10.68;;
79687;SDS011;69155;49.464;2.108;2023-04-24T07:17:22;22.40;;;11.70;;
79687;SDS011;69155;49.464;2.108;2023-04-24T07:19:50;21.23;;;11.90;;
79687;SDS011;69155;49.464;2.108;2023-04-24T07:22:17;19.02;;;11.27;;
79687;SDS011;69155;49.464;2.108;2023-04-24T07:24:51;19.40;;;11.75;;
79687;SDS011;69155;49.464;2.108;2023-04-24T15:59:06;6.75;;;4.60;;
79687;SDS011;69155;49.464;2.108;2023-04-24T16:01:41;9.50;;;6.38;;
79687;SDS011;69155;49.464;2.108;2023-04-24T16:04:12;15.10;;;8.77;;
79687;SDS011;69155;49.464;2.108;2023-04-24T16:06:40;9.98;;;5.53;;
79687;SDS011;69155;49.464;2.108;2023-04-24T16:09:12;5.70;;;3.83;;
79687;SDS011;69155;49.464;2.108;2023-04-24T16:14:26;9.00;;;3.90;;
79687;SDS011;69155;49.464;2.108;2023-04-24T16:16:51;4.50;;;3.22;;
79687;SDS011;69155;49.464;2.108;2023-04-24T16:19:19;4.10;;;2.95;;
79687;SDS011;69155;49.464;2.108;2023-04-24T16:21:44;9.30;;;3.20;;
79687;SDS011;69155;49.464;2.108;2023-04-24T16:24:10;4.37;;;2.70;;
79687;SDS011;69155;49.464;2.108;2023-04-24T16:26:35;6.63;;;2.75;;
79687;SDS011;69155;49.464;2.108;2023-04-24T16:29:00;6.20;;;3.23;;
79687;SDS011;69155;49.464;2.108;2023-04-24T16:31:25;6.73;;;3.10;;
79687;SDS011;69155;49.464;2.108;2023-04-24T16:33:51;7.67;;;2.97;;
79687;SDS011;69155;49.464;2.108;2023-04-24T16:36:16;4.45;;;2.75;;
79687;SDS011;69155;49.464;2.108;2023-04-24T16:38:41;10.73;;;4.33;;
79687;SDS011;69155;49.464;2.108;2023-04-24T16:41:07;5.40;;;3.03;;
79687;SDS011;69155;49.464;2.108;2023-04-24T16:43:32;5.30;;;3.70;;
79687;SDS011;69155;49.464;2.108;2023-04-24T16:45:58;8.25;;;4.93;;
79687;SDS011;69155;49.464;2.108;2023-04-24T16:48:25;19.40;;;10.13;;
79687;SDS011;69155;49.464;2.108;2023-04-24T16:50:50;25.57;;;15.03;;
79687;SDS011;69155;49.464;2.108;2023-04-24T16:53:15;17.10;;;10.40;;
79687;SDS011;69155;49.464;2.108;2023-04-24T16:55:40;12.07;;;6.03;;
79687;SDS011;69155;49.464;2.108;2023-04-24T16:58:06;15.07;;;6.10;;
79687;SDS011;69155;49.464;2.108;2023-04-24T17:00:31;14.40;;;4.87;;
79687;SDS011;69155;49.464;2.108;2023-04-24T17:02:56;13.40;;;6.37;;
79687;SDS011;69155;49.464;2.108;2023-04-24T17:05:21;7.87;;;5.40;;
79687;SDS011;69155;49.464;2.108;2023-04-24T17:07:50;7.93;;;5.10;;
79687;SDS011;69155;49.464;2.108;2023-04-24T17:10:15;7.90;;;5.10;;
79687;SDS011;69155;49.464;2.108;2023-04-24T17:12:40;6.73;;;3.10;;
79687;SDS011;69155;49.464;2.108;2023-04-24T17:15:06;7.20;;;5.00;;
79687;SDS011;69155;49.464;2.108;2023-04-24T17:17:31;5.68;;;3.92;;
79687;SDS011;69155;49.464;2.108;2023-04-24T17:19:56;5.70;;;3.20;;
79687;SDS011;69155;49.464;2.108;2023-04-24T17:22:22;4.33;;;3.60;;
79687;SDS011;69155;49.464;2.108;2023-04-24T17:24:50;12.63;;;4.63;;
79687;SDS011;69155;49.464;2.108;2023-04-24T17:27:15;5.13;;;3.77;;
79687;SDS011;69155;49.464;2.108;2023-04-24T17:29:41;5.68;;;3.65;;
79687;SDS011;69155;49.464;2.108;2023-04-24T17:32:06;7.57;;;3.30;;
79687;SDS011;69155;49.464;2.108;2023-04-24T17:34:33;8.88;;;5.72;;
79687;SDS011;69155;49.464;2.108;2023-04-24T17:36:59;7.63;;;4.87;;
79687;SDS011;69155;49.464;2.108;2023-04-24T17:39:24;9.70;;;5.50;;
79687;SDS011;69155;49.464;2.108;2023-04-24T17:41:49;11.93;;;7.03;;
79687;SDS011;69155;49.464;2.108;2023-04-24T17:44:15;8.27;;;4.75;;
79687;SDS011;69155;49.464;2.108;2023-04-24T17:46:40;35.47;;;5.33;;
79687;SDS011;69155;49.464;2.108;2023-04-24T17:49:06;9.17;;;5.33;;
79687;SDS011;69155;49.464;2.108;2023-04-24T17:51:31;9.23;;;5.73;;
79687;SDS011;69155;49.464;2.108;2023-04-24T17:53:56;7.53;;;5.00;;
79687;SDS011;69155;49.464;2.108;2023-04-24T17:56:22;4.73;;;2.77;;
79687;SDS011;69155;49.464;2.108;2023-04-24T17:58:48;7.25;;;4.03;;
79687;SDS011;69155;49.464;2.108;2023-04-24T18:01:14;7.87;;;3.40;;
79687;SDS011;69155;49.464;2.108;2023-04-24T18:03:39;5.73;;;2.63;;
79687;SDS011;69155;49.464;2.108;2023-04-24T18:06:05;4.80;;;3.45;;
79687;SDS011;69155;49.464;2.108;2023-04-24T18:08:34;4.15;;;2.83;;
79687;SDS011;69155;49.464;2.108;2023-04-24T18:10:59;4.70;;;3.03;;
79687;SDS011;69155;49.464;2.108;2023-04-24T18:13:24;3.73;;;2.90;;
79687;SDS011;69155;49.464;2.108;2023-04-24T18:15:50;6.70;;;3.20;;
79687;SDS011;69155;49.464;2.108;2023-04-24T18:18:15;6.50;;;4.23;;
79687;SDS011;69155;49.464;2.108;2023-04-24T18:20:41;5.18;;;2.70;;
79687;SDS011;69155;49.464;2.108;2023-04-24T18:23:07;4.70;;;2.92;;
79687;SDS011;69155;49.464;2.108;2023-04-24T18:25:32;3.17;;;2.40;;
79687;SDS011;69155;49.464;2.108;2023-04-24T18:27:57;3.50;;;2.53;;
79687;SDS011;69155;49.464;2.108;2023-04-24T18:30:25;3.92;;;2.55;;
79687;SDS011;69155;49.464;2.108;2023-04-24T18:32:52;3.80;;;2.83;;
79687;SDS011;69155;49.464;2.108;2023-04-24T18:35:20;3.10;;;2.40;;
79687;SDS011;69155;49.464;2.108;2023-04-24T18:37:45;4.38;;;2.60;;
79687;SDS011;69155;49.464;2.108;2023-04-24T18:40:11;3.20;;;2.60;;
79687;SDS011;69155;49.464;2.108;2023-04-24T18:42:37;3.75;;;3.15;;
79687;SDS011;69155;49.464;2.108;2023-04-24T18:45:02;4.30;;;3.17;;
79687;SDS011;69155;49.464;2.108;2023-04-24T18:47:28;7.47;;;3.22;;
79687;SDS011;69155;49.464;2.108;2023-04-24T18:49:54;4.50;;;2.70;;
79687;SDS011;69155;49.464;2.108;2023-04-24T18:52:19;5.80;;;3.40;;
79687;SDS011;69155;49.464;2.108;2023-04-24T18:54:47;3.97;;;2.70;;
79687;SDS011;69155;49.464;2.108;2023-04-24T18:57:12;3.95;;;2.53;;
79687;SDS011;69155;49.464;2.108;2023-04-24T18:59:37;4.57;;;2.75;;
79687;SDS011;69155;49.464;2.108;2023-04-24T19:02:06;6.77;;;3.30;;
79687;SDS011;69155;49.464;2.108;2023-04-24T19:04:31;5.97;;;3.47;;
79687;SDS011;69155;49.464;2.108;2023-04-24T19:06:56;5.00;;;3.30;;
79687;SDS011;69155;49.464;2.108;2023-04-24T19:09:21;6.17;;;3.20;;
79687;SDS011;69155;49.464;2.108;2023-04-24T19:11:47;5.13;;;2.57;;
79687;SDS011;69155;49.464;2.108;2023-04-24T19:14:12;6.28;;;3.10;;
79687;SDS011;69155;49.464;2.108;2023-04-24T19:16:41;4.05;;;3.05;;
79687;SDS011;69155;49.464;2.108;2023-04-24T19:19:06;4.05;;;3.25;;
79687;SDS011;69155;49.464;2.108;2023-04-24T19:21:32;5.38;;;3.22;;
79687;SDS011;69155;49.464;2.108;2023-04-24T19:23:58;4.30;;;3.58;;
79687;SDS011;69155;49.464;2.108;2023-04-24T19:26:23;4.22;;;3.60;;
79687;SDS011;69155;49.464;2.108;2023-04-24T19:28:49;4.30;;;3.30;;
79687;SDS011;69155;49.464;2.108;2023-04-24T19:31:17;9.27;;;3.85;;
79687;SDS011;69155;49.464;2.108;2023-04-24T19:33:42;7.40;;;4.87;;
79687;SDS011;69155;49.464;2.108;2023-04-24T19:36:08;9.30;;;4.60;;
79687;SDS011;69155;49.464;2.108;2023-04-24T19:38:33;10.15;;;3.92;;
79687;SDS011;69155;49.464;2.108;2023-04-24T19:40:58;7.07;;;4.90;;
79687;SDS011;69155;49.464;2.108;2023-04-24T19:43:24;5.63;;;4.53;;
79687;SDS011;69155;49.464;2.108;2023-04-24T19:45:49;6.10;;;4.53;;
79687;SDS011;69155;49.464;2.108;2023-04-24T19:48:17;6.53;;;4.55;;
79687;SDS011;69155;49.464;2.108;2023-04-24T19:50:42;6.75;;;4.40;;
79687;SDS011;69155;49.464;2.108;2023-04-24T19:53:11;5.60;;;4.50;;
79687;SDS011;69155;49.464;2.108;2023-04-24T19:55:36;7.38;;;4.60;;
79687;SDS011;69155;49.464;2.108;2023-04-24T19:58:01;5.73;;;4.57;;
79687;SDS011;69155;49.464;2.108;2023-04-24T20:00:27;7.90;;;4.87;;
79687;SDS011;69155;49.464;2.108;2023-04-24T20:02:52;4.80;;;4.05;;
79687;SDS011;69155;49.464;2.108;2023-04-24T20:05:19;6.97;;;4.00;;
79687;SDS011;69155;49.464;2.108;2023-04-24T20:07:47;6.55;;;4.95;;
79687;SDS011;69155;49.464;2.108;2023-04-24T20:10:14;6.95;;;4.35;;
79687;SDS011;69155;49.464;2.108;2023-04-24T20:12:40;6.63;;;5.37;;
79687;SDS011;69155;49.464;2.108;2023-04-24T20:15:05;7.40;;;5.40;;
79687;SDS011;69155;49.464;2.108;2023-04-24T20:17:30;8.32;;;5.13;;
79687;SDS011;69155;49.464;2.108;2023-04-24T20:19:56;8.77;;;4.93;;
79687;SDS011;69155;49.464;2.108;2023-04-24T20:22:21;5.30;;;4.53;;
79687;SDS011;69155;49.464;2.108;2023-04-24T20:24:46;6.50;;;5.03;;
79687;SDS011;69155;49.464;2.108;2023-04-24T20:27:12;8.68;;;4.88;;
79687;SDS011;69155;49.464;2.108;2023-04-24T20:29:38;7.30;;;4.97;;
79687;SDS011;69155;49.464;2.108;2023-04-24T20:32:03;11.97;;;7.40;;
79687;SDS011;69155;49.464;2.108;2023-04-24T20:34:29;8.80;;;6.93;;
79687;SDS011;69155;49.464;2.108;2023-04-24T20:36:54;8.13;;;6.30;;
79687;SDS011;69155;49.464;2.108;2023-04-24T20:39:21;7.18;;;5.97;;
79687;SDS011;69155;49.464;2.108;2023-04-24T20:41:46;8.23;;;6.63;;
79687;SDS011;69155;49.464;2.108;2023-04-24T20:44:11;11.53;;;7.90;;
79687;SDS011;69155;49.464;2.108;2023-04-24T20:46:37;9.80;;;7.07;;
79687;SDS011;69155;49.464;2.108;2023-04-24T20:49:02;8.77;;;6.17;;
79687;SDS011;69155;49.464;2.108;2023-04-24T20:51:29;9.80;;;7.70;;
79687;SDS011;69155;49.464;2.108;2023-04-24T20:53:56;10.00;;;8.20;;
79687;SDS011;69155;49.464;2.108;2023-04-24T20:56:21;10.77;;;7.72;;
79687;SDS011;69155;49.464;2.108;2023-04-24T20:58:48;10.80;;;8.80;;
79687;SDS011;69155;49.464;2.108;2023-04-24T21:01:13;12.07;;;9.23;;
79687;SDS011;69155;49.464;2.108;2023-04-24T21:03:39;15.95;;;12.10;;
79687;SDS011;69155;49.464;2.108;2023-04-24T21:06:05;19.98;;;13.70;;
79687;SDS011;69155;49.464;2.108;2023-04-24T21:08:30;22.45;;;17.05;;
79687;SDS011;69155;49.464;2.108;2023-04-24T21:10:55;17.13;;;11.50;;
79687;SDS011;69155;49.464;2.108;2023-04-24T21:13:20;16.43;;;10.13;;
79687;SDS011;69155;49.464;2.108;2023-04-24T21:15:46;15.80;;;9.53;;
79687;SDS011;69155;49.464;2.108;2023-04-24T21:18:11;13.13;;;8.93;;
79687;SDS011;69155;49.464;2.108;2023-04-24T21:20:36;14.13;;;8.50;;
79687;SDS011;69155;49.464;2.108;2023-04-24T21:23:01;11.90;;;8.70;;
79687;SDS011;69155;49.464;2.108;2023-04-24T21:25:27;12.73;;;9.60;;
79687;SDS011;69155;49.464;2.108;2023-04-24T21:27:52;12.80;;;9.02;;
79687;SDS011;69155;49.464;2.108;2023-04-24T21:30:17;13.40;;;9.33;;
79687;SDS011;69155;49.464;2.108;2023-04-24T21:32:43;12.17;;;9.03;;
79687;SDS011;69155;49.464;2.108;2023-04-24T21:35:11;13.67;;;10.30;;
79687;SDS011;69155;49.464;2.108;2023-04-24T21:37:36;17.65;;;10.38;;
79687;SDS011;69155;49.464;2.108;2023-04-24T21:40:03;12.73;;;8.93;;
79687;SDS011;69155;49.464;2.108;2023-04-24T21:42:28;10.10;;;6.22;;
79687;SDS011;69155;49.464;2.108;2023-04-24T21:44:54;8.55;;;6.25;;
79687;SDS011;69155;49.464;2.108;2023-04-24T21:47:19;7.27;;;4.53;;
79687;SDS011;69155;49.464;2.108;2023-04-24T21:49:44;6.03;;;3.93;;
79687;SDS011;69155;49.464;2.108;2023-04-24T21:52:10;6.07;;;4.00;;
79687;SDS011;69155;49.464;2.108;2023-04-24T21:54:38;6.40;;;3.97;;
79687;SDS011;69155;49.464;2.108;2023-04-24T21:57:03;5.85;;;4.15;;
79687;SDS011;69155;49.464;2.108;2023-04-24T21:59:30;6.97;;;3.70;;
79687;SDS011;69155;49.464;2.108;2023-04-24T22:01:55;6.30;;;4.28;;
79687;SDS011;69155;49.464;2.108;2023-04-24T22:04:20;6.00;;;4.00;;
79687;SDS011;69155;49.464;2.108;2023-04-24T22:06:46;8.40;;;3.80;;
79687;SDS011;69155;49.464;2.108;2023-04-24T22:09:11;8.83;;;4.10;;
79687;SDS011;69155;49.464;2.108;2023-04-24T22:11:36;11.70;;;6.27;;
79687;SDS011;69155;49.464;2.108;2023-04-24T22:14:02;13.23;;;5.70;;
79687;SDS011;69155;49.464;2.108;2023-04-24T22:16:28;9.73;;;4.68;;
79687;SDS011;69155;49.464;2.108;2023-04-24T22:18:53;6.20;;;3.80;;
79687;SDS011;69155;49.464;2.108;2023-04-24T22:21:19;7.05;;;4.72;;
79687;SDS011;69155;49.464;2.108;2023-04-24T22:23:44;6.50;;;4.28;;
79687;SDS011;69155;49.464;2.108;2023-04-24T22:26:10;6.53;;;3.90;;
79687;SDS011;69155;49.464;2.108;2023-04-24T22:28:35;6.57;;;3.73;;
79687;SDS011;69155;49.464;2.108;2023-04-24T22:31:00;4.30;;;2.93;;
79687;SDS011;69155;49.464;2.108;2023-04-24T22:33:28;4.37;;;3.20;;
79687;SDS011;69155;49.464;2.108;2023-04-24T22:35:54;6.97;;;3.63;;
79687;SDS011;69155;49.464;2.108;2023-04-24T22:38:19;5.77;;;3.20;;
79687;SDS011;69155;49.464;2.108;2023-04-24T22:40:44;6.27;;;3.77;;
79687;SDS011;69155;49.464;2.108;2023-04-24T22:43:10;6.43;;;3.07;;
79687;SDS011;69155;49.464;2.108;2023-04-24T22:45:36;6.50;;;3.43;;
79687;SDS011;69155;49.464;2.108;2023-04-24T22:48:04;7.68;;;3.17;;
79687;SDS011;69155;49.464;2.108;2023-04-24T22:50:30;5.55;;;3.33;;
79687;SDS011;69155;49.464;2.108;2023-04-24T22:52:56;7.07;;;3.97;;
79687;SDS011;69155;49.464;2.108;2023-04-24T22:55:21;10.07;;;6.77;;
79687;SDS011;69155;49.464;2.108;2023-04-24T22:57:47;16.07;;;9.97;;
79687;SDS011;69155;49.464;2.108;2023-04-24T23:00:12;11.38;;;6.00;;
79687;SDS011;69155;49.464;2.108;2023-04-24T23:02:38;8.10;;;4.45;;
79687;SDS011;69155;49.464;2.108;2023-04-24T23:05:07;7.78;;;4.40;;
79687;SDS011;69155;49.464;2.108;2023-04-24T23:07:33;7.97;;;4.20;;
79687;SDS011;69155;49.464;2.108;2023-04-24T23:09:58;6.57;;;3.83;;
79687;SDS011;69155;49.464;2.108;2023-04-24T23:12:24;5.23;;;3.90;;
79687;SDS011;69155;49.464;2.108;2023-04-24T23:14:49;11.40;;;5.73;;
79687;SDS011;69155;49.464;2.108;2023-04-24T23:17:14;10.63;;;6.15;;
79687;SDS011;69155;49.464;2.108;2023-04-24T23:19:39;14.33;;;7.63;;
79687;SDS011;69155;49.464;2.108;2023-04-24T23:22:07;10.35;;;6.38;;
79687;SDS011;69155;49.464;2.108;2023-04-24T23:24:32;18.95;;;10.32;;
79687;SDS011;69155;49.464;2.108;2023-04-24T23:26:58;16.23;;;8.30;;
79687;SDS011;69155;49.464;2.108;2023-04-24T23:29:23;11.63;;;7.73;;
79687;SDS011;69155;49.464;2.108;2023-04-24T23:31:50;11.75;;;7.03;;
79687;SDS011;69155;49.464;2.108;2023-04-24T23:34:15;10.63;;;5.93;;
79687;SDS011;69155;49.464;2.108;2023-04-24T23:36:46;8.50;;;5.55;;
79687;SDS011;69155;49.464;2.108;2023-04-24T23:39:11;10.73;;;5.05;;
79687;SDS011;69155;49.464;2.108;2023-04-24T23:41:36;5.90;;;4.70;;
79687;SDS011;69155;49.464;2.108;2023-04-24T23:44:02;7.07;;;4.55;;
79687;SDS011;69155;49.464;2.108;2023-04-24T23:46:27;9.00;;;4.80;;
79687;SDS011;69155;49.464;2.108;2023-04-24T23:48:52;4.90;;;4.13;;
79687;SDS011;69155;49.464;2.108;2023-04-24T23:51:18;6.83;;;4.33;;
79687;SDS011;69155;49.464;2.108;2023-04-24T23:53:43;7.40;;;3.87;;
79687;SDS011;69155;49.464;2.108;2023-04-24T23:56:08;10.57;;;4.57;;
79687;SDS011;69155;49.464;2.108;2023-04-24T23:58:33;7.73;;;5.20;;
